map of WIL home
WIL - Airport
Location
City:  Nairobi, Kenya
Name:Wilson
ICAO:HKNW
IATA:WIL

Details
Type:Airport (Aerodrome, Airfield)
Use:Public/Civil
Latitude:119'18"S (-1.321718)
Longitude:3648'53"E (36.814833)
Datum:WGS 1984
Elevation:5546 ft (1690 m)
Variation:0.63E (WMM2015 magnetic declination)
0.04 annual change
Runways:2
Longest:5052 × 76 ft (1540 × 23 m), paved

Time
Time Zone:UTC+3
Local Time:

Weather
METAR:HKNW 210500Z 08008KT 9999 BKN021 19/15 Q1022

Related Locations
Nearby:
Farthest:NHV: 11707 mi / 18840 km
Nuku Hiva, Marquesas Islands, PF

Find:

   beyond  
but within

Other Information
Maps:
NOTAMs:
Links:
Sources:

  
  • flag of Kenya
  

Sectional Chart

Flight Planning
at skyvector.com

Satellite Image

Google Maps Satellite view

 

Copyright © 2004-2018 Karl L. Swartz. All rights reserved.
The Great Circle Mapper name and logo are trademarks of the Great Circle Mapper.
All other trademarks mentioned herein belong to their respective owners.
Please see credits for attibutions and further copyright information.

  Follow gcmap on Facebook Follow gcmap on Twitter Follow gcmap on Google+ GCmap on LinkedIn

hCard Microformat

Geo Microformat